Pagrindinis puslapis
METAR-TAF:

METAR-TAF

Oro uostai :

Kanas, Nigerija

platuma: 12-03N, ilguma: 008-32E, Aukštis: 476 m

Dabartinis oras

Ataskaita buvo paskelbta 13 valandos ir 34 minutes, ne 14:00 UTC
Vėjas 9 kt iš Šiaurės/Šiaurės Rytų
Temperatūra 28°C
Drėgmė 17%
Slėgis 1016 hPa
Matomumas: 1500 m
migla

METAR: DNKN 271400Z 03009KT 1500 HZ NSC 28/01 Q1016 BECMG 300

Laikas: 04:34 (03:34 UTC)


TAF: trūkstamas

Orai ataskaitas ir orų prognozės (METAR, TAF).

turimą stotys yra geltonos ir raudonos taškus žemėlapyje.

Perkelti pele per norėdami pamatyti stoties vardą.

Tada spustelėkite, norėdami matyti oro stebėjimo ir prognozės.

Norėdami pakeisti žemėlapį: spustelėkite ant žalios mygtukų su juodo kryžiaus žemyn,; žalią mygtuką su brūkšneliu, jei norite nutolinti; arba žalių rodyklių gretimoms žemėlapius.


METAR-TAF: